createdAt,value
2017-11-18T00:01:40.488Z,78.21
2017-11-18T00:04:08.069Z,78.22
2017-11-18T00:06:36.374Z,78.36
2017-11-18T00:09:03.988Z,78.69
2017-11-18T00:11:31.612Z,77.98
2017-11-18T00:13:59.387Z,77.93
2017-11-18T00:16:27.907Z,78.58
2017-11-18T00:18:55.534Z,78.61
2017-11-18T00:21:23.142Z,78.06
2017-11-18T00:23:50.863Z,77.60
2017-11-18T00:26:18.656Z,77.69
2017-11-18T00:28:47.208Z,78.15
2017-11-18T00:31:14.844Z,77.81
2017-11-18T00:33:42.438Z,78.01
2017-11-18T00:36:10.663Z,77.75
2017-11-18T00:38:38.342Z,77.88
2017-11-18T00:41:05.970Z,79.10
2017-11-18T00:43:33.585Z,79.00
2017-11-18T00:46:01.182Z,78.07
2017-11-18T00:48:28.768Z,77.77
2017-11-18T00:50:56.369Z,78.34
2017-11-18T00:53:23.984Z,78.40
2017-11-18T00:55:51.741Z,78.41
2017-11-18T00:58:19.539Z,78.35
2017-11-18T01:00:48.086Z,77.36
2017-11-18T01:03:15.699Z,77.42
2017-11-18T01:05:43.310Z,77.61
2017-11-18T01:08:10.997Z,77.69
2017-11-18T01:10:38.820Z,77.82
2017-11-18T01:13:06.447Z,77.91
2017-11-18T01:15:34.090Z,78.83
2017-11-18T01:18:01.859Z,78.90
2017-11-18T01:20:29.467Z,78.79
2017-11-18T01:22:57.281Z,79.37
2017-11-18T01:25:25.077Z,78.98
2017-11-18T01:27:52.744Z,78.92
2017-11-18T01:30:20.402Z,78.66
2017-11-18T01:32:47.993Z,78.50
2017-11-18T01:35:15.833Z,78.29
2017-11-18T01:37:43.779Z,79.53
2017-11-18T01:40:11.561Z,79.12
2017-11-18T01:42:39.370Z,78.94
2017-11-18T01:45:07.000Z,79.16
2017-11-18T01:47:34.814Z,78.84
2017-11-18T01:50:02.586Z,78.27
2017-11-18T01:52:30.396Z,79.10
2017-11-18T01:54:59.041Z,79.43
2017-11-18T01:57:26.965Z,78.68
2017-11-18T01:59:54.560Z,80.83
2017-11-18T02:02:33.944Z,80.21
2017-11-18T02:05:01.611Z,78.82
2017-11-18T02:07:29.366Z,78.70
2017-11-18T02:09:56.959Z,78.73
2017-11-18T02:12:24.699Z,78.41
2017-11-18T02:14:52.317Z,78.50
2017-11-18T02:17:20.006Z,78.72
2017-11-18T02:19:47.657Z,79.09
2017-11-18T02:22:15.242Z,78.74
2017-11-18T02:24:42.853Z,77.86
2017-11-18T02:27:10.433Z,77.37
2017-11-18T02:29:38.316Z,77.47
2017-11-18T02:32:06.793Z,77.58
2017-11-18T02:34:34.363Z,77.58
2017-11-18T02:37:02.706Z,77.74
2017-11-18T02:39:30.325Z,77.39
2017-11-18T02:41:58.145Z,76.91
2017-11-18T02:44:26.686Z,76.44
2017-11-18T02:46:54.344Z,76.32
2017-11-18T02:49:22.135Z,76.65
2017-11-18T02:51:49.905Z,76.72
2017-11-18T02:54:18.142Z,76.37
2017-11-18T02:56:45.909Z,76.99
2017-11-18T02:59:14.001Z,76.32
2017-11-18T03:01:41.606Z,76.83
2017-11-18T03:04:09.223Z,77.53
2017-11-18T03:06:36.782Z,77.85
2017-11-18T03:09:04.548Z,77.13
2017-11-18T03:11:32.336Z,77.50
2017-11-18T03:14:00.164Z,77.37
2017-11-18T03:16:27.835Z,78.62
2017-11-18T03:18:55.591Z,77.81
2017-11-18T03:21:23.359Z,77.32
2017-11-18T03:23:50.981Z,77.88
2017-11-18T03:26:18.759Z,79.34
2017-11-18T03:28:46.549Z,78.53
2017-11-18T03:31:14.203Z,79.14
2017-11-18T03:33:42.568Z,77.87
2017-11-18T03:36:10.316Z,78.56
2017-11-18T03:38:37.945Z,78.15
2017-11-18T03:41:05.545Z,78.09
2017-11-18T03:43:33.148Z,77.97
2017-11-18T03:46:00.815Z,78.91
2017-11-18T03:48:28.451Z,79.34
2017-11-18T03:50:56.284Z,79.73
2017-11-18T03:53:23.914Z,79.54
2017-11-18T03:55:51.482Z,78.93
2017-11-18T03:58:19.265Z,78.49
2017-11-18T04:00:52.511Z,77.71
2017-11-18T04:03:20.302Z,78.60
2017-11-18T04:05:47.961Z,79.15
2017-11-18T04:08:15.575Z,78.83
2017-11-18T04:10:43.412Z,79.55
2017-11-18T04:13:11.321Z,80.66
2017-11-18T04:15:38.990Z,79.34
2017-11-18T04:18:06.907Z,80.73
2017-11-18T04:20:34.589Z,79.21
2017-11-18T04:23:02.260Z,79.08
2017-11-18T04:25:29.834Z,78.92
2017-11-18T04:27:57.700Z,79.02
2017-11-18T04:30:25.445Z,79.11
2017-11-18T04:32:53.034Z,79.77
2017-11-18T04:35:20.804Z,79.96
2017-11-18T04:37:48.553Z,79.90
2017-11-18T04:40:16.223Z,79.44
2017-11-18T04:42:44.040Z,80.40
2017-11-18T04:45:11.741Z,79.34
2017-11-18T04:47:39.428Z,78.83
2017-11-18T04:50:07.139Z,78.85
2017-11-18T04:52:34.847Z,79.43
2017-11-18T04:55:03.403Z,78.73
2017-11-18T04:57:31.046Z,78.21
2017-11-18T04:59:59.471Z,77.96
2017-11-18T05:02:27.112Z,78.14
2017-11-18T05:04:54.770Z,77.47
2017-11-18T05:07:22.328Z,76.80
2017-11-18T05:09:49.961Z,77.11
2017-11-18T05:12:17.810Z,76.88
2017-11-18T05:14:45.435Z,77.26
2017-11-18T05:17:13.035Z,76.64
2017-11-18T05:19:40.837Z,76.41
2017-11-18T05:22:08.423Z,77.11
2017-11-18T05:24:36.058Z,77.79
2017-11-18T05:27:03.816Z,77.64
2017-11-18T05:29:31.546Z,76.84
2017-11-18T05:31:59.845Z,76.77
2017-11-18T05:34:27.657Z,77.12
2017-11-18T05:36:55.446Z,77.22
2017-11-18T05:39:23.215Z,76.72
2017-11-18T05:41:51.019Z,77.97
2017-11-18T05:44:18.625Z,76.95
2017-11-18T05:46:47.156Z,76.86
2017-11-18T05:49:14.816Z,76.60
2017-11-18T05:51:42.428Z,76.88
2017-11-18T05:54:10.063Z,76.73
2017-11-18T05:56:37.723Z,76.81
2017-11-18T05:59:06.289Z,76.19
2017-11-18T06:01:33.899Z,76.17
2017-11-18T06:04:01.543Z,76.08
2017-11-18T06:06:29.104Z,75.62
2017-11-18T06:08:56.725Z,75.45
2017-11-18T06:11:24.413Z,76.10
2017-11-18T06:13:51.936Z,75.60
2017-11-18T06:16:19.584Z,76.00
2017-11-18T06:18:47.131Z,75.71
2017-11-18T06:21:14.670Z,75.46
2017-11-18T06:23:42.326Z,75.99
2017-11-18T06:26:09.836Z,75.65
2017-11-18T06:28:37.365Z,76.49
2017-11-18T06:31:04.946Z,77.05
2017-11-18T06:33:32.474Z,76.60
2017-11-18T06:35:59.992Z,76.09
2017-11-18T06:38:28.316Z,76.14
2017-11-18T06:40:55.859Z,76.04
2017-11-18T06:43:23.460Z,75.76
2017-11-18T06:45:51.110Z,76.53
2017-11-18T06:48:18.708Z,76.57
2017-11-18T06:50:46.282Z,75.80
2017-11-18T06:53:13.940Z,75.50
2017-11-18T06:55:41.496Z,75.23
2017-11-18T06:58:09.015Z,75.75
2017-11-18T07:00:36.580Z,75.64
2017-11-18T07:03:04.172Z,75.15
2017-11-18T07:05:31.695Z,75.00
2017-11-18T07:07:59.379Z,75.32
2017-11-18T07:10:27.171Z,75.02
2017-11-18T07:12:54.808Z,75.40
2017-11-18T07:15:22.484Z,75.23
2017-11-18T07:17:50.175Z,74.93
2017-11-18T07:20:17.800Z,74.50
2017-11-18T07:22:45.403Z,73.97
2017-11-18T07:25:13.191Z,73.21
2017-11-18T07:27:40.763Z,73.18
2017-11-18T07:30:08.453Z,75.26
2017-11-18T07:32:36.255Z,74.66
2017-11-18T07:35:03.795Z,74.07
2017-11-18T07:37:31.438Z,73.60
2017-11-18T07:39:59.247Z,73.02
2017-11-18T07:42:26.879Z,72.20
2017-11-18T07:44:54.559Z,72.43
2017-11-18T07:47:22.135Z,72.09
2017-11-18T07:49:50.043Z,71.73
2017-11-18T07:52:17.711Z,71.95
2017-11-18T07:54:46.123Z,71.12
2017-11-18T07:57:18.373Z,70.95
2017-11-18T07:59:46.019Z,71.13
2017-11-18T08:02:13.686Z,70.79
2017-11-18T08:04:41.585Z,70.40
2017-11-18T08:07:09.210Z,70.24
2017-11-18T08:09:36.926Z,69.94
2017-11-18T08:12:04.742Z,71.06
2017-11-18T08:14:32.906Z,71.09
2017-11-18T08:17:00.498Z,70.36
2017-11-18T08:19:28.151Z,70.68
2017-11-18T08:21:55.773Z,70.61
2017-11-18T08:24:23.401Z,69.13
2017-11-18T08:26:50.932Z,69.25
2017-11-18T08:29:18.503Z,67.85
2017-11-18T08:31:46.114Z,68.09
2017-11-18T08:34:13.690Z,67.36
2017-11-18T08:36:42.345Z,67.64
2017-11-18T08:39:10.019Z,67.54
2017-11-18T08:41:37.644Z,65.95
2017-11-18T08:44:05.506Z,66.25
2017-11-18T08:46:33.170Z,65.23
2017-11-18T08:49:00.978Z,65.59
2017-11-18T08:51:28.593Z,65.16
2017-11-18T08:53:57.036Z,64.83
2017-11-18T08:56:24.665Z,65.66
2017-11-18T08:58:52.260Z,65.68
2017-11-18T09:01:19.843Z,64.56
2017-11-18T09:03:47.399Z,65.91
2017-11-18T09:06:14.991Z,65.25
2017-11-18T09:08:42.645Z,63.42
2017-11-18T09:11:10.230Z,64.27
2017-11-18T09:13:38.612Z,63.28
2017-11-18T09:16:06.294Z,63.01
2017-11-18T09:18:34.121Z,62.92
2017-11-18T09:21:02.407Z,62.26
2017-11-18T09:23:29.996Z,63.80
2017-11-18T09:25:57.613Z,63.57
2017-11-18T09:28:25.251Z,63.17
2017-11-18T09:30:52.867Z,62.71
2017-11-18T09:33:21.237Z,63.01
2017-11-18T09:35:49.006Z,63.94
2017-11-18T09:38:17.202Z,61.27
2017-11-18T09:40:44.817Z,62.58
2017-11-18T09:43:12.463Z,62.06
2017-11-18T09:45:40.077Z,60.24
2017-11-18T09:48:07.906Z,60.65
2017-11-18T09:50:35.697Z,58.97
2017-11-18T09:53:03.319Z,58.58
2017-11-18T09:55:30.888Z,59.60
2017-11-18T09:57:58.512Z,58.24
2017-11-18T10:00:26.129Z,59.19
2017-11-18T10:02:53.664Z,59.34
2017-11-18T10:05:21.284Z,58.96
2017-11-18T10:07:48.881Z,60.09
2017-11-18T10:10:16.660Z,58.03
2017-11-18T10:12:44.417Z,58.03
2017-11-18T10:15:12.021Z,58.44
2017-11-18T10:17:40.189Z,57.22
2017-11-18T10:20:08.780Z,57.49
2017-11-18T10:22:36.402Z,57.01
2017-11-18T10:25:04.216Z,57.12
2017-11-18T10:27:31.764Z,57.30
2017-11-18T10:29:59.491Z,56.11
2017-11-18T10:32:27.086Z,56.47
2017-11-18T10:34:54.900Z,60.18
2017-11-18T10:37:23.370Z,59.10
2017-11-18T10:39:50.950Z,58.25
2017-11-18T10:42:18.523Z,58.08
2017-11-18T10:44:46.100Z,57.60
2017-11-18T10:47:14.593Z,57.76
2017-11-18T10:49:42.243Z,58.00
2017-11-18T10:52:10.005Z,57.45
2017-11-18T10:54:37.704Z,57.41
2017-11-18T10:57:05.526Z,57.95
2017-11-18T10:59:33.298Z,58.25
2017-11-18T11:02:00.945Z,58.00
2017-11-18T11:04:28.787Z,57.46
2017-11-18T11:06:56.543Z,57.75
2017-11-18T11:09:24.376Z,57.92
2017-11-18T11:11:52.479Z,59.23
2017-11-18T11:14:20.265Z,58.52
2017-11-18T11:16:47.914Z,58.67
2017-11-18T11:19:15.530Z,58.78
2017-11-18T11:21:43.388Z,59.89
2017-11-18T11:24:11.049Z,59.98
2017-11-18T11:26:38.666Z,59.77
2017-11-18T11:29:06.468Z,59.51
2017-11-18T11:31:34.070Z,59.85
2017-11-18T11:34:01.641Z,60.60
2017-11-18T11:36:29.340Z,61.23
2017-11-18T11:38:56.943Z,61.69
2017-11-18T11:41:24.547Z,61.07
2017-11-18T11:43:52.114Z,60.48
2017-11-18T11:46:19.759Z,60.92
2017-11-18T11:48:47.330Z,61.04
2017-11-18T11:51:14.922Z,59.98
2017-11-18T11:53:42.526Z,60.23
2017-11-18T11:56:10.132Z,59.41
2017-11-18T11:58:37.707Z,60.13
2017-11-18T12:01:05.325Z,61.36
2017-11-18T12:03:32.847Z,60.85
2017-11-18T12:06:00.458Z,60.28
2017-11-18T12:08:28.101Z,61.50
2017-11-18T12:10:55.982Z,61.21
2017-11-18T12:13:23.601Z,61.04
2017-11-18T12:15:51.226Z,62.24
2017-11-18T12:18:18.747Z,60.93
2017-11-18T12:20:46.591Z,59.97
2017-11-18T12:23:14.192Z,59.99
2017-11-18T12:25:42.006Z,59.71
2017-11-18T12:28:10.278Z,60.27
2017-11-18T12:30:37.890Z,61.18
2017-11-18T12:33:05.704Z,60.74
2017-11-18T12:35:33.385Z,60.12
2017-11-18T12:38:01.107Z,59.85
2017-11-18T12:40:28.700Z,60.69
2017-11-18T12:42:56.316Z,60.71
2017-11-18T12:45:23.944Z,60.69
2017-11-18T12:47:51.588Z,61.23
2017-11-18T12:50:19.376Z,61.23
2017-11-18T12:52:47.166Z,61.13
2017-11-18T12:55:14.788Z,61.05
2017-11-18T12:57:42.573Z,61.90
2017-11-18T13:00:10.223Z,62.75
2017-11-18T13:02:37.867Z,62.16
2017-11-18T13:05:05.561Z,62.19
2017-11-18T13:07:33.179Z,62.31
2017-11-18T13:10:00.945Z,62.45
2017-11-18T13:12:28.695Z,62.39
2017-11-18T13:14:56.306Z,63.00
2017-11-18T13:17:23.939Z,62.28
2017-11-18T13:19:51.699Z,63.74
2017-11-18T13:22:20.279Z,62.32
2017-11-18T13:24:47.843Z,62.74
2017-11-18T13:27:16.229Z,62.41
2017-11-18T13:29:43.859Z,62.41
2017-11-18T13:32:11.679Z,63.90
2017-11-18T13:34:39.305Z,63.27
2017-11-18T13:37:06.922Z,63.64
2017-11-18T13:39:35.406Z,63.08
2017-11-18T13:42:03.051Z,62.87
2017-11-18T13:44:30.819Z,62.99
2017-11-18T13:46:58.436Z,63.15
2017-11-18T13:49:26.206Z,63.36
2017-11-18T13:51:54.019Z,63.18
2017-11-18T13:54:21.665Z,62.58
2017-11-18T13:56:49.215Z,62.66
2017-11-18T13:59:16.775Z,62.74
2017-11-18T14:01:44.369Z,62.49
2017-11-18T14:04:12.214Z,63.08
2017-11-18T14:06:39.823Z,64.32
2017-11-18T14:09:07.447Z,64.62
2017-11-18T14:11:35.031Z,65.16
2017-11-18T14:14:02.800Z,64.93
2017-11-18T14:16:30.437Z,65.72
2017-11-18T14:18:58.042Z,65.34
2017-11-18T14:21:25.590Z,65.86
2017-11-18T14:23:53.240Z,66.38
2017-11-18T14:26:20.913Z,65.06
2017-11-18T14:28:48.698Z,65.36
2017-11-18T14:31:16.437Z,66.20
2017-11-18T14:33:44.398Z,66.20
2017-11-18T14:36:12.073Z,65.96
2017-11-18T14:38:39.722Z,66.35
2017-11-18T14:41:07.810Z,65.85
2017-11-18T14:43:36.448Z,65.93
2017-11-18T14:46:05.091Z,66.76
2017-11-18T14:48:32.809Z,66.34
2017-11-18T14:51:00.401Z,66.09
2017-11-18T14:53:28.158Z,66.48
2017-11-18T14:55:56.081Z,66.21
2017-11-18T14:58:23.920Z,66.23
2017-11-18T15:00:52.545Z,66.64
2017-11-18T15:03:20.279Z,66.93
2017-11-18T15:05:48.222Z,69.34
2017-11-18T15:08:16.039Z,74.16
2017-11-18T15:10:43.873Z,70.97
2017-11-18T15:20:12.835Z,68.96
2017-11-18T15:25:50.039Z,67.96
2017-11-18T15:28:23.115Z,67.88
2017-11-18T15:30:56.402Z,67.10
2017-11-18T15:33:26.756Z,67.24
2017-11-18T15:35:54.756Z,67.09
2017-11-18T15:38:25.933Z,67.12
2017-11-18T15:40:53.604Z,66.83
2017-11-18T15:43:26.309Z,66.56
2017-11-18T15:45:58.589Z,67.13
2017-11-18T15:48:36.887Z,66.20
2017-11-18T15:51:10.094Z,66.49
2017-11-18T15:53:43.179Z,67.94
2017-11-18T15:56:17.543Z,66.93
2017-11-18T15:58:45.907Z,66.78
2017-11-18T16:01:18.992Z,67.97
2017-11-18T16:04:01.576Z,67.27
2017-11-18T16:06:33.716Z,67.08
2017-11-18T16:09:01.393Z,67.41
2017-11-18T16:11:29.000Z,67.90
2017-11-18T16:13:56.641Z,67.65
2017-11-18T16:16:24.215Z,67.95
2017-11-18T16:18:51.825Z,67.84
2017-11-18T16:21:19.496Z,67.69
2017-11-18T16:23:48.080Z,68.02
2017-11-18T16:26:16.967Z,69.24
2017-11-18T16:28:44.579Z,68.42
2017-11-18T16:31:12.224Z,68.27
2017-11-18T16:33:39.828Z,68.60
2017-11-18T16:36:07.370Z,68.73
2017-11-18T16:38:35.218Z,68.30
2017-11-18T16:41:04.033Z,68.39
2017-11-18T16:43:31.661Z,69.10
2017-11-18T16:45:59.295Z,69.12
2017-11-18T16:48:26.952Z,69.31
2017-11-18T16:50:54.580Z,69.02
2017-11-18T16:53:22.237Z,68.93
2017-11-18T16:55:49.778Z,69.31
2017-11-18T16:58:17.642Z,68.74
2017-11-18T17:00:45.281Z,69.03
2017-11-18T17:03:14.399Z,69.28
2017-11-18T17:05:42.087Z,69.48
2017-11-18T17:08:09.701Z,69.00
2017-11-18T17:10:37.599Z,69.25
2017-11-18T17:13:05.166Z,69.40
2017-11-18T17:15:33.642Z,69.75
2017-11-18T17:18:01.187Z,69.80
2017-11-18T17:20:29.596Z,69.46
2017-11-18T17:23:03.404Z,69.80
2017-11-18T17:25:31.253Z,69.72
2017-11-18T17:27:58.994Z,69.35
2017-11-18T17:30:27.285Z,69.50
2017-11-18T17:32:55.073Z,69.60
2017-11-18T17:35:22.930Z,69.66
2017-11-18T17:37:50.537Z,69.51
2017-11-18T17:40:18.165Z,69.59
2017-11-18T17:42:45.761Z,69.67
2017-11-18T17:45:14.204Z,70.74
2017-11-18T17:47:41.833Z,70.10
2017-11-18T17:50:10.068Z,69.90
2017-11-18T17:52:37.736Z,70.79
2017-11-18T17:55:05.338Z,69.82
2017-11-18T17:57:33.127Z,69.74
2017-11-18T18:00:00.792Z,69.73
2017-11-18T18:02:28.396Z,70.32
2017-11-18T18:04:56.036Z,69.98
2017-11-18T18:07:23.589Z,70.18
2017-11-18T18:09:51.256Z,71.01
2017-11-18T18:12:19.056Z,70.22
2017-11-18T18:14:46.682Z,70.01
2017-11-18T18:17:14.275Z,70.54
2017-11-18T18:19:41.886Z,70.36
2017-11-18T18:22:09.434Z,71.11
2017-11-18T18:24:37.075Z,70.08
2017-11-18T18:27:04.731Z,69.55
2017-11-18T18:29:32.429Z,69.57
2017-11-18T18:32:00.107Z,70.55
2017-11-18T18:34:27.972Z,70.31
2017-11-18T18:36:56.358Z,70.35
2017-11-18T18:39:24.053Z,70.66
2017-11-18T18:41:52.076Z,70.88
2017-11-18T18:44:19.591Z,70.50
2017-11-18T18:46:47.292Z,70.01
2017-11-18T18:49:14.951Z,69.90
2017-11-18T18:51:43.275Z,70.22
2017-11-18T18:54:10.858Z,69.83
2017-11-18T18:56:38.684Z,70.17
2017-11-18T18:59:06.301Z,70.14
2017-11-18T19:01:33.959Z,70.33
2017-11-18T19:04:01.661Z,70.59
2017-11-18T19:06:29.285Z,70.19
2017-11-18T19:08:57.622Z,69.83
2017-11-18T19:11:25.212Z,70.34
2017-11-18T19:13:58.034Z,70.46
2017-11-18T19:16:26.562Z,69.56
2017-11-18T19:18:54.161Z,69.42
2017-11-18T19:21:21.840Z,69.47
2017-11-18T19:23:49.412Z,69.73
2017-11-18T19:26:17.019Z,69.97
2017-11-18T19:28:46.545Z,69.73
2017-11-18T19:31:14.223Z,69.60
2017-11-18T19:33:41.819Z,69.83
2017-11-18T19:36:09.504Z,69.76
2017-11-18T19:38:37.923Z,70.27
2017-11-18T19:41:05.453Z,70.28
2017-11-18T19:43:33.040Z,70.17
2017-11-18T19:46:00.988Z,70.68
2017-11-18T19:48:28.567Z,70.67
2017-11-18T19:50:56.142Z,70.67
2017-11-18T19:53:23.777Z,70.54
2017-11-18T19:55:51.454Z,70.17
2017-11-18T19:58:19.223Z,69.96
2017-11-18T20:00:46.987Z,70.31
2017-11-18T20:03:15.125Z,70.76
2017-11-18T20:05:46.970Z,70.44
2017-11-18T20:08:14.659Z,70.73
2017-11-18T20:10:42.230Z,70.29
2017-11-18T20:13:09.907Z,70.58
2017-11-18T20:18:29.256Z,70.71
2017-11-18T20:20:57.922Z,70.79
2017-11-18T20:23:25.745Z,70.56
2017-11-18T20:25:54.067Z,70.63
2017-11-18T20:28:24.091Z,70.37
2017-11-18T20:30:55.254Z,70.77
2017-11-18T20:33:22.905Z,70.71
2017-11-18T20:35:52.658Z,70.52
2017-11-18T20:38:20.940Z,70.53
2017-11-18T20:40:48.763Z,70.54
2017-11-18T20:43:17.781Z,70.75
2017-11-18T20:45:45.446Z,70.73
2017-11-18T20:48:12.990Z,71.25
2017-11-18T20:50:41.379Z,71.07
2017-11-18T20:53:09.005Z,71.14
2017-11-18T20:55:36.567Z,70.35
2017-11-18T20:58:04.431Z,70.28
2017-11-18T21:00:32.052Z,70.41
2017-11-18T21:02:59.629Z,71.07
2017-11-18T21:05:27.220Z,70.82
2017-11-18T21:07:56.261Z,70.46
2017-11-18T21:10:24.035Z,70.61
2017-11-18T21:12:51.596Z,70.47
2017-11-18T21:15:20.003Z,70.20
2017-11-18T21:17:49.190Z,70.27
2017-11-18T21:20:16.781Z,69.89
2017-11-18T21:22:44.486Z,69.87
2017-11-18T21:25:12.048Z,70.10
2017-11-18T21:27:39.914Z,69.96
2017-11-18T21:30:08.516Z,69.90
2017-11-18T21:32:36.314Z,70.23
2017-11-18T21:35:04.082Z,70.38
2017-11-18T21:37:31.732Z,69.99
2017-11-18T21:39:59.961Z,70.62
2017-11-18T21:42:27.769Z,70.23
2017-11-18T21:44:55.377Z,69.67
2017-11-18T21:47:22.968Z,69.97
2017-11-18T21:49:50.777Z,69.89
2017-11-18T21:52:18.379Z,70.13
2017-11-18T21:54:45.923Z,70.11
2017-11-18T21:57:14.335Z,69.84
2017-11-18T21:59:42.003Z,70.69
2017-11-18T22:02:09.573Z,70.40
2017-11-18T22:04:37.333Z,69.92
2017-11-18T22:07:05.002Z,70.11
2017-11-18T22:09:32.720Z,70.33
2017-11-18T22:12:00.331Z,69.96
2017-11-18T22:14:27.918Z,69.98
2017-11-18T22:16:55.608Z,70.17
2017-11-18T22:19:23.203Z,70.27
2017-11-18T22:21:50.771Z,70.16
2017-11-18T22:24:18.404Z,70.87
2017-11-18T22:26:46.395Z,70.47
2017-11-18T22:29:13.943Z,70.32
2017-11-18T22:31:41.565Z,70.38
2017-11-18T22:34:09.122Z,70.49
2017-11-18T22:36:36.712Z,70.30
2017-11-18T22:39:04.344Z,70.29
2017-11-18T22:41:32.104Z,70.75
2017-11-18T22:43:59.864Z,70.16
2017-11-18T22:46:27.504Z,70.24
2017-11-18T22:48:55.053Z,70.51
2017-11-18T22:51:22.835Z,71.83
2017-11-18T22:53:50.540Z,71.16
2017-11-18T22:56:18.063Z,70.86
2017-11-18T22:58:45.820Z,71.08
2017-11-18T23:01:13.450Z,71.16
2017-11-18T23:03:40.990Z,71.27
2017-11-18T23:06:08.558Z,71.39
2017-11-18T23:08:36.151Z,71.37
2017-11-18T23:11:03.924Z,71.49
2017-11-18T23:13:31.656Z,70.87
2017-11-18T23:15:59.297Z,71.19
2017-11-18T23:18:27.066Z,71.25
2017-11-18T23:20:54.641Z,71.12
2017-11-18T23:23:23.501Z,71.53
2017-11-18T23:25:51.044Z,71.87
2017-11-18T23:28:18.633Z,71.92
2017-11-18T23:30:46.270Z,71.91
2017-11-18T23:33:14.053Z,71.84
2017-11-18T23:35:41.578Z,71.75
2017-11-18T23:38:09.279Z,72.25
2017-11-18T23:40:36.842Z,72.73
2017-11-18T23:43:04.696Z,72.43
2017-11-18T23:45:32.344Z,72.48
2017-11-18T23:47:59.940Z,73.20
2017-11-18T23:50:27.608Z,72.88
2017-11-18T23:52:55.296Z,72.85
2017-11-18T23:55:23.094Z,73.11
2017-11-18T23:57:50.717Z,73.33
